Time;durP1;ratioP1;P1;durP2;ratioP2;P2;SDS_P1;SDS_P2;PMS_P1;PMS_P2;Temp;Humidity;BMP_temperature;BMP_pressure;BME280_temperature;BME280_humidity;BME280_pressure;Samples;Min_cycle;Max_cycle;Signal;HPM_P1;HPM_P2
2022/07/04 00:02:21;;;;;;;11.00;4.25;;;;;;;;;;5034669;28;20021;-36
2022/07/04 00:04:46;;;;;;;9.40;4.55;;;;;;;;;;5033307;28;20034;-39
2022/07/04 00:07:12;;;;;;;14.55;5.22;;;;;;;;;;5034682;28;20025;-36
2022/07/04 00:09:37;;;;;;;10.77;5.68;;;;;;;;;;5034460;28;20013;-37
2022/07/04 00:12:03;;;;;;;18.33;5.40;;;;;;;;;;5034422;28;20032;-37
2022/07/04 00:14:28;;;;;;;12.30;4.90;;;;;;;;;;5033459;28;20232;-38
2022/07/04 00:16:53;;;;;;;14.13;4.80;;;;;;;;;;5022425;28;20065;-37
2022/07/04 00:19:18;;;;;;;16.42;4.60;;;;;;;;;;5014883;28;20026;-37
2022/07/04 00:21:45;;;;;;;13.02;4.90;;;;;;;;;;5014571;28;20453;-36
2022/07/04 00:24:11;;;;;;;11.52;5.78;;;;;;;;;;5013640;28;20030;-37
2022/07/04 00:26:36;;;;;;;10.27;5.63;;;;;;;;;;5012769;28;20022;-37
2022/07/04 00:29:01;;;;;;;10.07;4.88;;;;;;;;;;5014105;28;20025;-36
2022/07/04 00:31:27;;;;;;;7.93;4.13;;;;;;;;;;5015019;28;20033;-38
2022/07/04 00:33:52;;;;;;;18.45;5.38;;;;;;;;;;5014283;28;20025;-37
2022/07/04 00:36:17;;;;;;;12.48;4.30;;;;;;;;;;5014348;28;20057;-36
2022/07/04 00:38:43;;;;;;;12.30;4.80;;;;;;;;;;5014000;28;20017;-37
2022/07/04 00:41:08;;;;;;;9.35;5.10;;;;;;;;;;5014168;28;20030;-38
2022/07/04 00:43:33;;;;;;;9.65;4.95;;;;;;;;;;5013665;28;20018;-38
2022/07/04 00:46:03;;;;;;;12.60;4.50;;;;;;;;;;5014452;28;20049;-36
2022/07/04 00:48:28;;;;;;;;;;;;;;;;;;5014416;28;20038;-38
2022/07/04 00:50:53;;;;;;;13.40;5.17;;;;;;;;;;5014242;28;19951;-40
2022/07/04 00:53:21;;;;;;;23.85;6.38;;;;;;;;;;5013835;28;20026;-36
2022/07/04 00:55:46;;;;;;;14.20;5.25;;;;;;;;;;5013092;28;20033;-38
2022/07/04 00:58:12;;;;;;;10.20;5.18;;;;;;;;;;5013260;28;20339;-37
2022/07/04 01:00:37;;;;;;;23.38;5.53;;;;;;;;;;5014361;28;20511;-37
2022/07/04 01:03:04;;;;;;;19.23;6.43;;;;;;;;;;5013920;28;20025;-36
2022/07/04 01:05:29;;;;;;;8.23;4.60;;;;;;;;;;5013441;28;20118;-36
2022/07/04 01:07:54;;;;;;;19.00;4.63;;;;;;;;;;5013400;28;20100;-36
2022/07/04 01:10:20;;;;;;;11.57;5.18;;;;;;;;;;5045644;28;20519;-37
2022/07/04 01:12:45;;;;;;;8.52;4.70;;;;;;;;;;5045142;28;20022;-37
2022/07/04 01:15:10;;;;;;;9.02;5.68;;;;;;;;;;5053868;28;20025;-36
2022/07/04 01:17:36;;;;;;;20.80;6.35;;;;;;;;;;5014947;28;20040;-37
2022/07/04 01:20:01;;;;;;;9.38;5.10;;;;;;;;;;5013763;28;20519;-36
2022/07/04 01:22:27;;;;;;;10.60;5.10;;;;;;;;;;5013616;28;20018;-37
2022/07/04 01:24:52;;;;;;;11.00;5.15;;;;;;;;;;5013374;28;20076;-37
2022/07/04 01:27:18;;;;;;;13.13;5.50;;;;;;;;;;5012910;28;20017;-38
2022/07/04 01:29:43;;;;;;;9.90;4.85;;;;;;;;;;5012850;28;20727;-38
2022/07/04 01:32:09;;;;;;;7.80;4.82;;;;;;;;;;5013592;28;20078;-36
2022/07/04 01:34:34;;;;;;;12.82;5.15;;;;;;;;;;5012987;28;20056;-38
2022/07/04 01:37:00;;;;;;;18.23;5.43;;;;;;;;;;5044966;28;20037;-37
2022/07/04 01:39:26;;;;;;;11.95;4.53;;;;;;;;;;5012940;28;20018;-40
2022/07/04 01:41:51;;;;;;;11.75;5.40;;;;;;;;;;5012900;28;20048;-36
2022/07/04 01:44:17;;;;;;;11.45;5.07;;;;;;;;;;5012831;28;20109;-37
2022/07/04 01:46:42;;;;;;;15.83;5.13;;;;;;;;;;5012911;28;20022;-37
2022/07/04 01:49:08;;;;;;;12.10;5.13;;;;;;;;;;5012909;28;20715;-36
2022/07/04 01:51:34;;;;;;;10.10;5.13;;;;;;;;;;5012816;28;20018;-36
2022/07/04 01:53:59;;;;;;;8.75;4.97;;;;;;;;;;5012546;28;20033;-37
2022/07/04 01:56:24;;;;;;;13.30;5.50;;;;;;;;;;5012836;28;20056;-37
2022/07/04 01:58:50;;;;;;;10.68;5.00;;;;;;;;;;5012191;28;20026;-37
2022/07/04 02:01:30;;;;;;;9.55;4.93;;;;;;;;;;5012920;28;20022;-40
2022/07/04 02:03:56;;;;;;;10.63;4.90;;;;;;;;;;5012619;28;20026;-36
2022/07/04 02:06:21;;;;;;;22.38;5.30;;;;;;;;;;5011503;28;20036;-36
2022/07/04 02:13:00;;;;;;;12.07;5.35;;;;;;;;;;5012361;28;20080;-38
2022/07/04 02:14:16;;;;;;;15.30;5.13;;;;;;;;;;5013492;28;20034;-40
2022/07/04 02:16:41;;;;;;;7.85;5.05;;;;;;;;;;5021074;28;20052;-36
2022/07/04 02:19:07;;;;;;;13.20;5.75;;;;;;;;;;5011725;28;20029;-37
2022/07/04 02:21:32;;;;;;;11.65;5.18;;;;;;;;;;5012294;28;20021;-36
2022/07/04 02:23:57;;;;;;;11.13;5.70;;;;;;;;;;5011897;28;20022;-38
2022/07/04 02:26:23;;;;;;;9.20;4.88;;;;;;;;;;5012266;28;20049;-37
2022/07/04 02:28:48;;;;;;;15.40;5.27;;;;;;;;;;5011634;28;20105;-38
2022/07/04 02:31:13;;;;;;;22.98;6.63;;;;;;;;;;5012376;28;20703;-36
2022/07/04 02:33:39;;;;;;;11.13;5.15;;;;;;;;;;5012250;28;20057;-38
2022/07/04 02:36:04;;;;;;;12.35;4.88;;;;;;;;;;5012579;28;20064;-36
2022/07/04 02:38:29;;;;;;;13.43;4.95;;;;;;;;;;5011362;28;20026;-36
2022/07/04 02:40:55;;;;;;;7.38;4.15;;;;;;;;;;5012201;28;20158;-36
2022/07/04 02:43:20;;;;;;;10.65;4.40;;;;;;;;;;5011731;28;20036;-36
2022/07/04 02:45:45;;;;;;;10.88;5.13;;;;;;;;;;5011993;28;20021;-36
2022/07/04 02:48:11;;;;;;;6.22;4.25;;;;;;;;;;5011612;28;20057;-36
2022/07/04 02:50:36;;;;;;;8.38;4.55;;;;;;;;;;5011658;28;20389;-36
2022/07/04 02:53:02;;;;;;;6.68;4.00;;;;;;;;;;5011553;28;20137;-37
2022/07/04 02:55:27;;;;;;;6.32;3.85;;;;;;;;;;5011744;28;20140;-40
2022/07/04 02:57:53;;;;;;;10.23;4.95;;;;;;;;;;5011377;28;20073;-36
2022/07/04 03:00:18;;;;;;;10.95;4.40;;;;;;;;;;5011969;28;20076;-36
2022/07/04 03:02:44;;;;;;;8.55;4.32;;;;;;;;;;5010254;28;20022;-39
2022/07/04 03:05:09;;;;;;;7.70;4.32;;;;;;;;;;5011775;28;20022;-37
2022/07/04 03:07:34;;;;;;;7.82;3.90;;;;;;;;;;5010757;28;20013;-37
2022/07/04 03:09:59;;;;;;;8.63;4.68;;;;;;;;;;5011410;28;20053;-36
2022/07/04 03:12:25;;;;;;;10.05;5.00;;;;;;;;;;5011796;28;20018;-38
2022/07/04 03:14:50;;;;;;;7.57;4.35;;;;;;;;;;5017288;28;20045;-39
2022/07/04 03:17:16;;;;;;;10.20;4.93;;;;;;;;;;5015149;28;20045;-36
2022/07/04 03:19:41;;;;;;;12.20;4.93;;;;;;;;;;5011553;28;20033;-36
2022/07/04 03:22:06;;;;;;;15.60;5.38;;;;;;;;;;5011474;28;20033;-36
2022/07/04 03:24:32;;;;;;;12.18;5.00;;;;;;;;;;5011102;28;20014;-38
2022/07/04 03:26:57;;;;;;;8.45;4.60;;;;;;;;;;5010981;28;20071;-36
2022/07/04 03:29:23;;;;;;;12.07;5.32;;;;;;;;;;5011620;28;20061;-36
2022/07/04 03:31:48;;;;;;;18.80;6.88;;;;;;;;;;5011492;28;20026;-38
2022/07/04 03:34:13;;;;;;;11.38;4.53;;;;;;;;;;5011277;28;20021;-36
2022/07/04 03:36:38;;;;;;;13.90;5.20;;;;;;;;;;5010982;28;20053;-37
2022/07/04 03:39:04;;;;;;;9.65;5.15;;;;;;;;;;5010889;28;20044;-37
2022/07/04 03:41:29;;;;;;;17.55;5.95;;;;;;;;;;5011316;28;20088;-37
2022/07/04 03:43:55;;;;;;;14.75;5.45;;;;;;;;;;5010896;28;20080;-36
2022/07/04 03:46:20;;;;;;;16.42;5.50;;;;;;;;;;5009893;28;20033;-37
2022/07/04 03:48:45;;;;;;;13.80;5.47;;;;;;;;;;5010909;28;20233;-39
2022/07/04 03:51:11;;;;;;;16.45;5.90;;;;;;;;;;5011341;28;20026;-37
2022/07/04 03:53:37;;;;;;;13.38;5.18;;;;;;;;;;5010464;28;20032;-38
2022/07/04 03:56:02;;;;;;;10.38;5.00;;;;;;;;;;5011023;28;20042;-36
2022/07/04 03:58:27;;;;;;;15.90;4.50;;;;;;;;;;5010987;28;20029;-36
2022/07/04 04:00:53;;;;;;;10.25;4.38;;;;;;;;;;5011618;28;20379;-36
2022/07/04 04:06:02;;;;;;;7.70;4.68;;;;;;;;;;5010984;28;20052;-37
2022/07/04 04:08:27;;;;;;;14.02;5.03;;;;;;;;;;5010449;28;20105;-37
2022/07/04 04:10:52;;;;;;;7.75;4.18;;;;;;;;;;5011241;28;20480;-36
2022/07/04 04:13:18;;;;;;;10.77;4.13;;;;;;;;;;5010919;28;20018;-38
2022/07/04 04:15:43;;;;;;;18.20;5.10;;;;;;;;;;5021501;28;20698;-36
2022/07/04 04:18:08;;;;;;;11.77;4.10;;;;;;;;;;5010050;28;20025;-36
2022/07/04 04:20:34;;;;;;;7.43;4.13;;;;;;;;;;5011098;28;20462;-36
2022/07/04 04:22:59;;;;;;;14.70;4.43;;;;;;;;;;5010452;28;20014;-37
2022/07/04 04:25:24;;;;;;;16.27;4.68;;;;;;;;;;5011002;28;20145;-38
2022/07/04 04:27:50;;;;;;;7.65;4.10;;;;;;;;;;5010020;28;20029;-37
2022/07/04 04:30:15;;;;;;;11.98;4.15;;;;;;;;;;5013057;28;20030;-36
2022/07/04 04:32:40;;;;;;;12.25;3.33;;;;;;;;;;5014248;28;20048;-39
2022/07/04 04:35:06;;;;;;;5.72;3.63;;;;;;;;;;5014084;28;20078;-37
2022/07/04 04:37:31;;;;;;;22.67;4.38;;;;;;;;;;5013767;28;20085;-37
2022/07/04 04:39:56;;;;;;;8.70;3.13;;;;;;;;;;5014063;28;20100;-37
2022/07/04 04:42:22;;;;;;;6.75;3.65;;;;;;;;;;5014199;28;20018;-37
2022/07/04 04:44:47;;;;;;;8.43;3.58;;;;;;;;;;5013566;28;20068;-39
2022/07/04 04:47:13;;;;;;;6.57;3.03;;;;;;;;;;5013852;28;20480;-37
2022/07/04 04:49:38;;;;;;;3.97;3.08;;;;;;;;;;5014189;28;20026;-39
2022/07/04 04:52:05;;;;;;;3.92;2.63;;;;;;;;;;5014082;28;20093;-37
2022/07/04 04:54:31;;;;;;;5.68;3.33;;;;;;;;;;5013094;28;20030;-37
2022/07/04 04:56:56;;;;;;;4.15;3.08;;;;;;;;;;5013800;28;20313;-37
2022/07/04 04:59:21;;;;;;;3.55;3.00;;;;;;;;;;5014083;28;20040;-37
2022/07/04 05:01:47;;;;;;;5.37;3.33;;;;;;;;;;5014052;28;20484;-37
2022/07/04 05:04:14;;;;;;;4.03;3.22;;;;;;;;;;5013245;28;20296;-36
2022/07/04 05:06:39;;;;;;;10.80;3.50;;;;;;;;;;5013775;28;20025;-37
2022/07/04 05:09:05;;;;;;;14.25;4.10;;;;;;;;;;5013014;28;20026;-37
2022/07/04 05:11:30;;;;;;;17.25;4.07;;;;;;;;;;5012703;28;20113;-37
2022/07/04 05:13:55;;;;;;;10.68;4.63;;;;;;;;;;5013655;28;20457;-37
2022/07/04 05:16:21;;;;;;;7.05;4.03;;;;;;;;;;5024233;28;20040;-37
2022/07/04 05:18:46;;;;;;;10.85;4.28;;;;;;;;;;5012785;28;20109;-37
2022/07/04 05:21:11;;;;;;;16.65;4.80;;;;;;;;;;5013512;28;20100;-37
2022/07/04 05:23:37;;;;;;;24.77;5.28;;;;;;;;;;5013298;28;20076;-36
2022/07/04 05:26:02;;;;;;;8.67;3.90;;;;;;;;;;5013544;28;20061;-37
2022/07/04 05:28:27;;;;;;;7.68;3.70;;;;;;;;;;5012389;28;20301;-37
2022/07/04 05:30:53;;;;;;;8.60;3.43;;;;;;;;;;5014432;28;20053;-37
2022/07/04 05:33:18;;;;;;;8.70;3.45;;;;;;;;;;5032038;28;20259;-36
2022/07/04 05:35:43;;;;;;;6.97;3.58;;;;;;;;;;5030996;28;20057;-37
2022/07/04 05:38:09;;;;;;;5.32;2.70;;;;;;;;;;5022706;28;20057;-37
2022/07/04 05:40:34;;;;;;;6.57;3.20;;;;;;;;;;5020251;28;20021;-37
2022/07/04 05:42:59;;;;;;;63.22;7.20;;;;;;;;;;5030292;28;20270;-39
2022/07/04 05:45:25;;;;;;;6.10;3.08;;;;;;;;;;5026586;28;20176;-37
2022/07/04 05:47:50;;;;;;;10.07;3.65;;;;;;;;;;5029894;28;20025;-39
2022/07/04 05:50:15;;;;;;;5.00;3.40;;;;;;;;;;5028077;28;20030;-37
2022/07/04 05:52:41;;;;;;;4.80;2.90;;;;;;;;;;5031972;28;20303;-39
2022/07/04 05:55:07;;;;;;;7.37;2.83;;;;;;;;;;5028494;28;20262;-35
2022/07/04 05:57:32;;;;;;;11.10;3.17;;;;;;;;;;5029063;28;20493;-37
2022/07/04 05:59:57;;;;;;;10.82;2.83;;;;;;;;;;5030593;28;20123;-37
2022/07/04 06:02:23;;;;;;;5.22;2.88;;;;;;;;;;5030178;28;20488;-37
2022/07/04 06:04:48;;;;;;;10.95;3.88;;;;;;;;;;5029350;28;20052;-40
2022/07/04 06:07:14;;;;;;;7.60;3.15;;;;;;;;;;5028943;28;20369;-37
2022/07/04 06:09:39;;;;;;;6.57;2.70;;;;;;;;;;5030603;28;20029;-38
2022/07/04 06:12:05;;;;;;;4.83;3.17;;;;;;;;;;5031407;28;20243;-38
2022/07/04 06:14:30;;;;;;;5.53;2.85;;;;;;;;;;5033660;28;20245;-40
2022/07/04 06:16:56;;;;;;;15.40;2.60;;;;;;;;;;5030827;28;20516;-40
2022/07/04 06:19:21;;;;;;;5.00;2.50;;;;;;;;;;5028061;28;20552;-38
2022/07/04 06:21:46;;;;;;;6.45;2.60;;;;;;;;;;5030627;28;20017;-39
2022/07/04 06:24:12;;;;;;;7.40;2.35;;;;;;;;;;5026751;28;20045;-42
2022/07/04 06:26:37;;;;;;;2.67;2.17;;;;;;;;;;5013678;28;20018;-41
2022/07/04 06:29:02;;;;;;;4.03;2.05;;;;;;;;;;5018134;28;20040;-37
2022/07/04 06:31:28;;;;;;;6.10;2.23;;;;;;;;;;5031256;28;20018;-39
2022/07/04 06:36:37;;;;;;;5.13;1.88;;;;;;;;;;5030438;28;20472;-40
2022/07/04 06:39:03;;;;;;;4.43;1.92;;;;;;;;;;5025769;28;20492;-39
2022/07/04 06:41:29;;;;;;;2.00;1.80;;;;;;;;;;5025647;28;20022;-38
2022/07/04 06:43:54;;;;;;;4.93;1.80;;;;;;;;;;5029798;28;20258;-38
2022/07/04 06:46:20;;;;;;;4.97;2.50;;;;;;;;;;5030660;28;20255;-40
2022/07/04 06:48:45;;;;;;;3.70;1.65;;;;;;;;;;5030120;28;20013;-42
2022/07/04 06:51:11;;;;;;;3.03;2.27;;;;;;;;;;5029357;28;20461;-38
2022/07/04 06:53:36;;;;;;;5.47;1.88;;;;;;;;;;5019506;28;20020;-39
2022/07/04 06:56:02;;;;;;;3.88;1.70;;;;;;;;;;5025313;28;20033;-39
2022/07/04 06:58:27;;;;;;;6.55;1.58;;;;;;;;;;5029338;28;20079;-42
2022/07/04 07:00:52;;;;;;;8.02;1.50;;;;;;;;;;5030542;28;20375;-42
2022/07/04 07:03:18;;;;;;;3.28;1.38;;;;;;;;;;5029695;28;20025;-38
2022/07/04 07:05:43;;;;;;;2.10;1.50;;;;;;;;;;5029868;28;20026;-41
2022/07/04 07:08:08;;;;;;;63.07;5.83;;;;;;;;;;5026151;28;20250;-41
2022/07/04 07:10:35;;;;;;;62.50;7.70;;;;;;;;;;5029387;28;20290;-39
2022/07/04 07:13:01;;;;;;;7.93;1.80;;;;;;;;;;5037696;28;20266;-40
2022/07/04 07:15:26;;;;;;;2.30;1.40;;;;;;;;;;5037056;28;20024;-42
2022/07/04 07:17:51;;;;;;;1.30;1.10;;;;;;;;;;5030456;28;20560;-38
2022/07/04 07:20:17;;;;;;;4.10;1.40;;;;;;;;;;5033045;28;20029;-40
2022/07/04 07:22:42;;;;;;;2.77;1.60;;;;;;;;;;5029820;28;20247;-40
2022/07/04 07:25:09;;;;;;;5.85;1.67;;;;;;;;;;5029769;28;20382;-41
2022/07/04 07:27:34;;;;;;;7.55;1.85;;;;;;;;;;5029623;28;20021;-38
2022/07/04 07:29:59;;;;;;;5.70;1.55;;;;;;;;;;5028601;28;20029;-39
2022/07/04 07:32:25;;;;;;;2.93;1.23;;;;;;;;;;5024871;28;20128;-39
2022/07/04 07:34:50;;;;;;;2.92;1.60;;;;;;;;;;5023736;28;20286;-39
2022/07/04 07:37:17;;;;;;;1.38;1.25;;;;;;;;;;5024062;28;20085;-42
2022/07/04 07:39:43;;;;;;;2.50;1.20;;;;;;;;;;5027130;28;20030;-41
2022/07/04 07:42:08;;;;;;;2.53;1.45;;;;;;;;;;5033481;28;20384;-40
2022/07/04 07:44:33;;;;;;;3.47;1.40;;;;;;;;;;5026775;28;20028;-40
2022/07/04 07:46:59;;;;;;;2.30;1.50;;;;;;;;;;5030212;28;20020;-39
2022/07/04 07:49:24;;;;;;;4.63;1.30;;;;;;;;;;5029422;28;20330;-38
2022/07/04 07:51:49;;;;;;;2.90;1.48;;;;;;;;;;5029720;28;20025;-39
2022/07/04 07:54:17;;;;;;;6.53;1.60;;;;;;;;;;5027864;28;20814;-39
2022/07/04 07:56:42;;;;;;;2.28;1.20;;;;;;;;;;5025399;28;20113;-40
2022/07/04 07:59:07;;;;;;;3.10;1.10;;;;;;;;;;5038088;28;20504;-39
2022/07/04 08:01:33;;;;;;;4.40;1.40;;;;;;;;;;5049789;28;20017;-39
2022/07/04 08:06:42;;;;;;;2.35;1.52;;;;;;;;;;5052642;28;20442;-41
2022/07/04 08:09:07;;;;;;;4.60;1.30;;;;;;;;;;5054213;28;20020;-37
2022/07/04 08:11:33;;;;;;;4.40;1.40;;;;;;;;;;5039055;28;20025;-44
2022/07/04 08:13:58;;;;;;;4.95;1.40;;;;;;;;;;5030407;28;20029;-37
2022/07/04 08:16:23;;;;;;;2.83;1.40;;;;;;;;;;5031454;28;20041;-40
2022/07/04 08:18:49;;;;;;;1.42;1.33;;;;;;;;;;5031674;28;20338;-39
2022/07/04 08:21:14;;;;;;;2.40;1.30;;;;;;;;;;5043080;28;20237;-39
2022/07/04 08:23:40;;;;;;;7.22;1.50;;;;;;;;;;5053586;28;20021;-37
2022/07/04 08:26:05;;;;;;;3.47;1.40;;;;;;;;;;5054088;28;20112;-37
2022/07/04 08:28:31;;;;;;;3.42;1.35;;;;;;;;;;5052228;28;20120;-37
2022/07/04 08:30:56;;;;;;;5.00;1.43;;;;;;;;;;5049116;28;20108;-37
2022/07/04 08:33:22;;;;;;;2.95;1.55;;;;;;;;;;5037043;28;20335;-39
2022/07/04 08:35:48;;;;;;;2.80;1.40;;;;;;;;;;5053332;28;20400;-38
2022/07/04 08:38:13;;;;;;;2.60;1.45;;;;;;;;;;5033393;28;20042;-39
2022/07/04 08:40:40;;;;;;;1.90;1.35;;;;;;;;;;5032460;28;20381;-38
2022/07/04 08:43:05;;;;;;;6.70;1.80;;;;;;;;;;5033301;28;20437;-39
2022/07/04 08:45:34;;;;;;;1.97;1.40;;;;;;;;;;5033445;28;20144;-39
2022/07/04 08:48:01;;;;;;;10.23;1.85;;;;;;;;;;5033197;28;20072;-38
2022/07/04 08:50:29;;;;;;;3.85;1.30;;;;;;;;;;5033474;28;20104;-41
2022/07/04 08:52:58;;;;;;;1.85;1.42;;;;;;;;;;5036947;28;20024;-43
2022/07/04 08:58:29;;;;;;;2.90;1.70;;;;;;;;;;5032374;28;20564;-38
2022/07/04 09:00:55;;;;;;;23.27;2.78;;;;;;;;;;5042017;28;20552;-38
2022/07/04 09:03:21;;;;;;;2.13;1.60;;;;;;;;;;5048705;28;20562;-38
2022/07/04 09:05:47;;;;;;;4.22;1.30;;;;;;;;;;5033379;28;20021;-39
2022/07/04 09:08:12;;;;;;;4.32;1.60;;;;;;;;;;5033000;28;20028;-36
2022/07/04 09:10:38;;;;;;;5.78;1.58;;;;;;;;;;5033567;28;20656;-38
2022/07/04 09:13:05;;;;;;;5.20;1.40;;;;;;;;;;5033335;28;20072;-40
2022/07/04 09:15:31;;;;;;;3.20;1.35;;;;;;;;;;5040978;28;20021;-38
2022/07/04 09:17:56;;;;;;;9.50;1.60;;;;;;;;;;5028288;28;20033;-38
2022/07/04 09:20:22;;;;;;;4.13;1.52;;;;;;;;;;5033022;28;20105;-37
2022/07/04 09:22:49;;;;;;;3.55;1.80;;;;;;;;;;5032610;28;20385;-38
2022/07/04 09:25:15;;;;;;;2.65;1.38;;;;;;;;;;5031542;28;20067;-39
2022/07/04 09:27:47;;;;;;;2.60;1.20;;;;;;;;;;5032477;28;20411;-37
2022/07/04 09:30:15;;;;;;;6.82;1.50;;;;;;;;;;5049747;28;20049;-38
2022/07/04 09:32:44;;;;;;;4.13;1.58;;;;;;;;;;5038955;28;20108;-36
2022/07/04 09:35:16;;;;;;;4.40;1.33;;;;;;;;;;5032568;28;20079;-39
2022/07/04 09:37:45;;;;;;;6.95;1.13;;;;;;;;;;5032260;28;20088;-38
2022/07/04 09:40:19;;;;;;;2.70;1.20;;;;;;;;;;5032579;28;20017;-41
2022/07/04 09:42:45;;;;;;;2.33;1.30;;;;;;;;;;5026558;28;20022;-42
2022/07/04 09:45:11;;;;;;;3.88;1.40;;;;;;;;;;5032163;28;20048;-40
2022/07/04 09:47:37;;;;;;;1.83;1.13;;;;;;;;;;5040587;28;20037;-39
2022/07/04 09:50:03;;;;;;;9.02;1.30;;;;;;;;;;5031865;28;20022;-38
2022/07/04 09:52:30;;;;;;;3.70;1.42;;;;;;;;;;5032330;28;20036;-36
2022/07/04 09:55:02;;;;;;;4.78;1.20;;;;;;;;;;5032236;28;20032;-40
2022/07/04 09:57:29;;;;;;;4.38;1.10;;;;;;;;;;5026316;28;20033;-43
2022/07/04 09:59:54;;;;;;;5.07;1.17;;;;;;;;;;5016278;28;20021;-40
2022/07/04 10:02:20;;;;;;;3.17;1.10;;;;;;;;;;5010983;28;20018;-39
2022/07/04 10:04:46;;;;;;;8.63;1.50;;;;;;;;;;5022316;28;20022;-39
2022/07/04 10:07:29;;;;;;;2.88;1.20;;;;;;;;;;5029190;28;20756;-37
2022/07/04 10:09:54;;;;;;;4.93;1.60;;;;;;;;;;5029403;28;20571;-38
2022/07/04 10:12:26;;;;;;;1.67;1.13;;;;;;;;;;5020231;28;20022;-38
2022/07/04 10:14:53;;;;;;;1.90;1.10;;;;;;;;;;5015984;28;20369;-37
2022/07/04 10:17:18;;;;;;;3.45;0.98;;;;;;;;;;5025954;28;20497;-39
2022/07/04 10:19:44;;;;;;;1.67;1.00;;;;;;;;;;5024517;28;20067;-39
2022/07/04 10:22:10;;;;;;;4.75;1.10;;;;;;;;;;5031013;28;20112;-37
2022/07/04 10:24:35;;;;;;;2.33;1.42;;;;;;;;;;5029395;28;20485;-38
2022/07/04 10:27:01;;;;;;;3.33;1.10;;;;;;;;;;5010730;28;20026;-39
2022/07/04 10:29:26;;;;;;;2.75;1.10;;;;;;;;;;5024247;28;20029;-39
2022/07/04 10:31:53;;;;;;;1.80;1.08;;;;;;;;;;5018347;28;20029;-39
2022/07/04 10:34:18;;;;;;;5.15;1.30;;;;;;;;;;5025851;28;20385;-39
2022/07/04 10:36:50;;;;;;;5.00;1.00;;;;;;;;;;5032896;28;20056;-39
2022/07/04 10:39:22;;;;;;;4.30;1.10;;;;;;;;;;5029272;28;20041;-40
2022/07/04 10:42:01;;;;;;;2.30;0.90;;;;;;;;;;5030876;28;20027;-38
2022/07/04 10:44:34;;;;;;;3.78;1.10;;;;;;;;;;5029840;28;20108;-38
2022/07/04 10:46:59;;;;;;;2.00;0.95;;;;;;;;;;5030066;28;20029;-36
2022/07/04 10:49:26;;;;;;;3.47;1.30;;;;;;;;;;5029665;28;20118;-43
2022/07/04 10:52:12;;;;;;;2.33;1.27;;;;;;;;;;5028943;28;20271;-38
2022/07/04 10:54:42;;;;;;;1.88;0.80;;;;;;;;;;5024279;28;20491;-40
2022/07/04 10:57:24;;;;;;;19.70;1.70;;;;;;;;;;5028884;28;20684;-38
2022/07/04 10:59:52;;;;;;;4.57;1.25;;;;;;;;;;5027477;28;20136;-39
2022/07/04 11:02:17;;;;;;;2.28;0.93;;;;;;;;;;5030947;28;20028;-38
2022/07/04 11:04:57;;;;;;;2.53;1.00;;;;;;;;;;5029416;28;20025;-38
2022/07/04 11:07:37;;;;;;;0.98;0.88;;;;;;;;;;5026681;28;20081;-37
2022/07/04 11:12:56;;;;;;;3.70;0.98;;;;;;;;;;5027110;28;20477;-37
2022/07/04 11:15:25;;;;;;;1.90;0.80;;;;;;;;;;5033995;28;20041;-38
2022/07/04 11:17:51;;;;;;;3.63;1.00;;;;;;;;;;5027326;28;20373;-37
2022/07/04 11:20:21;;;;;;;5.95;0.90;;;;;;;;;;5029959;28;20031;-38
2022/07/04 11:22:46;;;;;;;3.00;0.98;;;;;;;;;;5030604;28;20104;-38
2022/07/04 11:25:12;;;;;;;6.13;1.00;;;;;;;;;;5030583;28;20109;-38
2022/07/04 11:27:37;;;;;;;4.15;1.20;;;;;;;;;;5031051;28;20239;-43
2022/07/04 11:30:03;;;;;;;6.50;1.48;;;;;;;;;;5030444;28;20360;-38
2022/07/04 11:32:32;;;;;;;2.72;1.05;;;;;;;;;;5031058;28;20492;-39
2022/07/04 11:34:57;;;;;;;7.90;1.10;;;;;;;;;;5027854;28;20549;-37
2022/07/04 11:37:23;;;;;;;3.50;0.80;;;;;;;;;;5023513;28;20044;-38
2022/07/04 11:39:52;;;;;;;4.65;1.30;;;;;;;;;;5034897;28;20079;-37
2022/07/04 11:45:07;;;;;;;2.17;1.30;;;;;;;;;;5029224;28;20072;-37
2022/07/04 11:47:37;;;;;;;2.28;0.90;;;;;;;;;;5033662;28;20071;-37
2022/07/04 11:50:03;;;;;;;3.55;0.88;;;;;;;;;;5037076;28;20021;-37
2022/07/04 11:52:30;;;;;;;6.30;1.00;;;;;;;;;;5034017;28;20084;-37
2022/07/04 11:54:56;;;;;;;2.47;0.80;;;;;;;;;;5036237;28;20419;-39
2022/07/04 11:57:25;;;;;;;0.90;0.90;;;;;;;;;;5037084;28;20034;-38
2022/07/04 11:59:53;;;;;;;4.40;1.00;;;;;;;;;;5036990;28;20075;-36
2022/07/04 12:02:19;;;;;;;2.53;1.40;;;;;;;;;;5033334;28;20061;-37
2022/07/04 12:04:44;;;;;;;2.15;0.90;;;;;;;;;;5030984;28;20726;-39
2022/07/04 12:07:11;;;;;;;6.32;1.10;;;;;;;;;;5035526;28;20022;-36
2022/07/04 12:09:36;;;;;;;5.18;0.85;;;;;;;;;;5035099;28;20342;-36
2022/07/04 12:12:02;;;;;;;1.42;0.90;;;;;;;;;;5034863;28;20021;-37
2022/07/04 12:14:27;;;;;;;1.48;0.95;;;;;;;;;;5036269;28;20111;-37
2022/07/04 12:17:16;;;;;;;3.60;1.17;;;;;;;;;;5034031;28;20052;-38
2022/07/04 12:19:52;;;;;;;2.17;0.70;;;;;;;;;;5037089;28;20506;-37
2022/07/04 12:22:26;;;;;;;2.88;1.00;;;;;;;;;;5034629;28;20289;-38
2022/07/04 12:24:51;;;;;;;3.03;0.98;;;;;;;;;;5036581;28;20036;-36
2022/07/04 12:27:20;;;;;;;3.20;1.00;;;;;;;;;;5031898;28;20021;-37
2022/07/04 12:29:49;;;;;;;2.20;1.15;;;;;;;;;;5034644;28;20262;-38
2022/07/04 12:32:14;;;;;;;1.13;0.75;;;;;;;;;;5032355;28;20026;-37
2022/07/04 12:34:39;;;;;;;1.63;1.02;;;;;;;;;;5033450;28;20029;-37
2022/07/04 12:37:07;;;;;;;0.80;0.80;;;;;;;;;;5037452;28;20127;-37
2022/07/04 12:39:34;;;;;;;1.55;0.70;;;;;;;;;;5034857;28;20491;-37
2022/07/04 12:42:05;;;;;;;1.10;0.90;;;;;;;;;;5031629;28;20029;-38
2022/07/04 12:44:30;;;;;;;2.90;1.00;;;;;;;;;;5036672;28;20075;-38
2022/07/04 12:46:56;;;;;;;4.40;1.00;;;;;;;;;;5035214;28;20017;-39
2022/07/04 12:49:21;;;;;;;1.40;0.93;;;;;;;;;;5035149;28;20301;-37
2022/07/04 12:51:47;;;;;;;1.75;0.80;;;;;;;;;;5032513;28;20131;-38
2022/07/04 12:54:12;;;;;;;1.05;0.95;;;;;;;;;;5033240;28;20033;-40
2022/07/04 12:56:42;;;;;;;5.95;1.10;;;;;;;;;;5033323;28;20038;-38
2022/07/04 12:59:11;;;;;;;3.05;1.00;;;;;;;;;;5031173;28;20034;-41
2022/07/04 13:01:37;;;;;;;3.70;0.90;;;;;;;;;;5033013;28;20033;-38
2022/07/04 13:04:03;;;;;;;3.13;1.00;;;;;;;;;;5033024;28;20022;-39
2022/07/04 13:06:29;;;;;;;3.45;1.10;;;;;;;;;;5033423;28;20369;-38
2022/07/04 13:08:54;;;;;;;1.25;1.10;;;;;;;;;;5030933;28;20045;-37
2022/07/04 13:14:04;;;;;;;1.95;1.17;;;;;;;;;;5033250;28;20406;-38
2022/07/04 13:16:29;;;;;;;2.80;1.40;;;;;;;;;;5031343;28;20021;-37
2022/07/04 13:18:55;;;;;;;4.50;1.10;;;;;;;;;;5031625;28;20812;-38
2022/07/04 13:21:20;;;;;;;5.55;1.30;;;;;;;;;;5015783;28;20061;-37
2022/07/04 13:23:45;;;;;;;1.58;1.02;;;;;;;;;;5030659;28;20032;-37
2022/07/04 13:26:11;;;;;;;1.55;1.00;;;;;;;;;;5028577;28;20613;-40
2022/07/04 13:28:36;;;;;;;5.30;1.50;;;;;;;;;;5027736;28;20018;-39
2022/07/04 13:31:01;;;;;;;2.43;1.10;;;;;;;;;;5025238;28;20251;-39
2022/07/04 13:33:27;;;;;;;4.32;1.40;;;;;;;;;;5024831;28;20020;-37
2022/07/04 13:35:53;;;;;;;3.03;1.50;;;;;;;;;;5023948;28;20091;-36
2022/07/04 13:38:18;;;;;;;1.23;1.05;;;;;;;;;;5029749;28;20067;-37
2022/07/04 13:40:44;;;;;;;2.47;1.00;;;;;;;;;;5028754;28;20056;-37
2022/07/04 13:43:10;;;;;;;3.20;1.15;;;;;;;;;;5031384;28;20022;-41
2022/07/04 13:45:36;;;;;;;2.08;1.10;;;;;;;;;;5030864;28;20025;-39
2022/07/04 13:48:01;;;;;;;1.38;1.20;;;;;;;;;;5030024;28;20031;-41
2022/07/04 13:50:27;;;;;;;6.22;0.98;;;;;;;;;;5030696;28;20021;-38
2022/07/04 13:52:52;;;;;;;2.90;1.10;;;;;;;;;;5031723;28;20020;-37
2022/07/04 13:55:18;;;;;;;1.80;0.80;;;;;;;;;;5029875;28;20266;-38
2022/07/04 13:57:43;;;;;;;0.90;0.90;;;;;;;;;;5028886;28;20029;-40
2022/07/04 14:00:09;;;;;;;3.55;0.90;;;;;;;;;;5028639;28;20105;-42
2022/07/04 14:02:35;;;;;;;6.20;1.10;;;;;;;;;;5028288;28;20055;-38
2022/07/04 14:05:00;;;;;;;1.42;0.90;;;;;;;;;;5031573;28;20421;-41
2022/07/04 14:07:26;;;;;;;0.77;0.75;;;;;;;;;;5032834;28;20030;-38
2022/07/04 14:09:51;;;;;;;11.73;0.90;;;;;;;;;;5026187;28;20358;-37
2022/07/04 14:12:17;;;;;;;0.82;0.80;;;;;;;;;;5028792;28;20017;-36
2022/07/04 14:14:43;;;;;;;3.50;1.02;;;;;;;;;;5030929;28;20100;-37
2022/07/04 14:17:08;;;;;;;0.85;0.85;;;;;;;;;;5025397;28;20033;-41
2022/07/04 14:19:33;;;;;;;3.85;1.05;;;;;;;;;;5027539;28;20412;-37
2022/07/04 14:21:59;;;;;;;1.70;0.97;;;;;;;;;;5028154;28;20032;-37
2022/07/04 14:24:27;;;;;;;2.38;1.25;;;;;;;;;;5028338;28;20266;-36
2022/07/04 14:26:53;;;;;;;2.38;1.17;;;;;;;;;;5032804;28;20069;-38
2022/07/04 14:29:18;;;;;;;1.13;0.93;;;;;;;;;;5030792;28;20026;-37
2022/07/04 14:31:44;;;;;;;3.28;1.20;;;;;;;;;;5029847;28;20135;-37
2022/07/04 14:34:11;;;;;;;3.10;1.20;;;;;;;;;;5024836;28;20037;-37
2022/07/04 14:36:37;;;;;;;2.55;0.95;;;;;;;;;;5015640;28;20137;-39
2022/07/04 14:39:03;;;;;;;1.58;1.00;;;;;;;;;;5031283;28;20108;-40
2022/07/04 14:41:28;;;;;;;2.58;0.70;;;;;;;;;;5031149;28;20483;-37
2022/07/04 14:43:54;;;;;;;3.33;1.10;;;;;;;;;;5031011;28;20109;-37
2022/07/04 14:46:19;;;;;;;3.55;1.00;;;;;;;;;;5031464;28;20031;-38
2022/07/04 14:48:45;;;;;;;1.15;1.00;;;;;;;;;;5031602;28;20021;-37
2022/07/04 14:51:10;;;;;;;3.60;0.97;;;;;;;;;;5031659;28;20083;-37
2022/07/04 14:53:35;;;;;;;3.22;1.10;;;;;;;;;;5029178;28;20748;-38
2022/07/04 14:56:01;;;;;;;1.73;0.80;;;;;;;;;;5029945;28;20509;-38
2022/07/04 14:58:26;;;;;;;0.95;0.90;;;;;;;;;;5028703;28;20581;-38